createdAt,value
2023-01-03T00:00:01.987Z,8.9
2023-01-03T00:03:01.059Z,8.9
2023-01-03T00:06:01.076Z,8.9
2023-01-03T00:09:00.991Z,8.9
2023-01-03T00:12:00.981Z,8.9
2023-01-03T00:15:01.159Z,8.9
2023-01-03T00:18:01.022Z,8.9
2023-01-03T00:21:01.046Z,8.9
2023-01-03T00:24:00.951Z,8.9
2023-01-03T00:27:01.028Z,8.9
2023-01-03T00:30:01.306Z,8.7
2023-01-03T00:33:01.189Z,8.7
2023-01-03T00:36:01.066Z,8.7
2023-01-03T00:39:01.083Z,8.7
2023-01-03T00:42:01.103Z,8.7
2023-01-03T00:45:01.049Z,8.7
2023-01-03T00:48:01.029Z,8.4
2023-01-03T00:51:01.014Z,8.4
2023-01-03T00:54:01.045Z,8.4
2023-01-03T00:57:01.247Z,8.3
2023-01-03T01:00:01.006Z,8.2
2023-01-03T01:03:01.524Z,8.2
2023-01-03T01:06:01.023Z,8.2
2023-01-03T01:09:00.988Z,8.2
2023-01-03T01:12:01.198Z,8.2
2023-01-03T01:15:01.104Z,8.2
2023-01-03T01:18:01.025Z,8.2
2023-01-03T01:21:01.025Z,8.2
2023-01-03T01:24:01.021Z,8.2
2023-01-03T01:27:00.970Z,7.8
2023-01-03T01:30:01.044Z,7.8
2023-01-03T01:33:01.059Z,7.8
2023-01-03T01:36:01.034Z,7.8
2023-01-03T01:39:01.047Z,7.8
2023-01-03T01:42:00.994Z,7.8
2023-01-03T01:45:01.161Z,7.8
2023-01-03T01:48:01.030Z,7.8
2023-01-03T01:51:01.028Z,7.8
2023-01-03T01:54:00.959Z,7.8
2023-01-03T01:57:00.958Z,7.8
2023-01-03T02:00:01.069Z,7.8
2023-01-03T02:03:01.177Z,7.8
2023-01-03T02:06:01.010Z,7.8
2023-01-03T02:09:01.050Z,7.7
2023-01-03T02:12:01.017Z,7.7
2023-01-03T02:15:00.978Z,7.7
2023-01-03T02:18:01.004Z,7.7
2023-01-03T02:21:00.963Z,7.7
2023-01-03T02:24:00.999Z,7.7
2023-01-03T02:27:00.992Z,7.7
2023-01-03T02:30:00.938Z,7.7
2023-01-03T02:33:00.977Z,7.7
2023-01-03T02:36:00.973Z,7.7
2023-01-03T02:39:00.976Z,7.7
2023-01-03T02:42:01.025Z,7.6
2023-01-03T02:45:00.955Z,7.7
2023-01-03T02:48:00.983Z,7.7
2023-01-03T02:51:01.016Z,7.7
2023-01-03T02:54:00.993Z,7.7
2023-01-03T02:57:00.953Z,7.7
2023-01-03T03:00:00.993Z,7.7
2023-01-03T03:03:01.192Z,7.7
2023-01-03T03:06:01.051Z,7.7
2023-01-03T03:09:00.987Z,7.7
2023-01-03T03:12:01.005Z,7.7
2023-01-03T03:15:01.054Z,7.7
2023-01-03T03:18:01.046Z,7.7
2023-01-03T03:21:01.240Z,7.7
2023-01-03T03:24:00.990Z,7.7
2023-01-03T03:27:01.022Z,7.7
2023-01-03T03:30:00.955Z,7.7
2023-01-03T03:33:00.948Z,7.7
2023-01-03T03:36:01.009Z,7.7
2023-01-03T03:39:00.969Z,7.7
2023-01-03T03:42:01.029Z,7.7
2023-01-03T03:45:01.914Z,7.7
2023-01-03T03:48:00.994Z,7.7
2023-01-03T03:51:00.999Z,7.7
2023-01-03T03:54:00.999Z,7.7
2023-01-03T03:57:01.047Z,7.7
2023-01-03T04:00:00.968Z,7.7
2023-01-03T04:03:01.221Z,7.7
2023-01-03T04:06:00.943Z,7.7
2023-01-03T04:09:01.010Z,7.7
2023-01-03T04:12:00.990Z,7.7
2023-01-03T04:15:00.960Z,7.7
2023-01-03T04:18:01.008Z,7.5
2023-01-03T04:21:00.967Z,7.5
2023-01-03T04:24:00.983Z,7.5
2023-01-03T04:27:01.008Z,7.5
2023-01-03T04:30:01.088Z,7.5
2023-01-03T04:33:00.955Z,7.5
2023-01-03T04:36:01.016Z,7.5
2023-01-03T04:39:00.961Z,7.5
2023-01-03T04:42:01.014Z,7.5
2023-01-03T04:45:00.954Z,7.5
2023-01-03T04:48:01.097Z,7.5
2023-01-03T04:51:01.013Z,7.5
2023-01-03T04:54:01.022Z,7.5
2023-01-03T04:57:01.001Z,7.5
2023-01-03T05:00:01.027Z,7.5
2023-01-03T05:03:01.019Z,7.5
2023-01-03T05:06:01.051Z,7.5
2023-01-03T05:09:00.998Z,7.4
2023-01-03T05:12:00.944Z,7.4
2023-01-03T05:15:01.033Z,7.4
2023-01-03T05:18:01.112Z,7.4
2023-01-03T05:21:01.007Z,7.4
2023-01-03T05:24:01.037Z,7.4
2023-01-03T05:27:00.938Z,7.5
2023-01-03T05:30:00.976Z,7.5
2023-01-03T05:33:00.973Z,7.5
2023-01-03T05:36:01.022Z,7.5
2023-01-03T05:39:00.973Z,7.5
2023-01-03T05:42:01.067Z,7.5
2023-01-03T05:45:01.059Z,7.5
2023-01-03T05:48:00.944Z,7.5
2023-01-03T05:51:01.003Z,7.5
2023-01-03T05:54:00.999Z,7.5
2023-01-03T05:57:01.069Z,7.5
2023-01-03T06:00:01.071Z,7.3
2023-01-03T06:03:01.081Z,7.3
2023-01-03T06:06:00.962Z,7.3
2023-01-03T06:09:01.016Z,7.3
2023-01-03T06:12:00.943Z,7.3
2023-01-03T06:15:01.014Z,7.3
2023-01-03T06:18:00.974Z,7.3
2023-01-03T06:21:00.940Z,7.3
2023-01-03T06:24:00.983Z,7.3
2023-01-03T06:27:00.996Z,7.3
2023-01-03T06:30:00.978Z,7.2
2023-01-03T06:33:01.021Z,7.2
2023-01-03T06:36:01.051Z,7.2
2023-01-03T06:39:01.009Z,7.2
2023-01-03T06:42:01.075Z,7.2
2023-01-03T06:45:00.960Z,7.2
2023-01-03T06:48:00.988Z,7.2
2023-01-03T06:51:00.994Z,7.2
2023-01-03T06:54:01.160Z,7.2
2023-01-03T06:57:00.960Z,7.2
2023-01-03T07:00:01.028Z,7.2
2023-01-03T07:03:10.831Z,7.2
2023-01-03T07:06:00.976Z,7.2
2023-01-03T07:09:01.005Z,7.2
2023-01-03T07:12:01.032Z,7.2
2023-01-03T07:15:01.123Z,7.2
2023-01-03T07:18:00.944Z,7
2023-01-03T07:21:01.030Z,7
2023-01-03T07:24:00.973Z,7
2023-01-03T07:27:00.952Z,7
2023-01-03T07:30:01.095Z,7
2023-01-03T07:33:00.998Z,7
2023-01-03T07:36:11.186Z,7
2023-01-03T07:39:00.968Z,7
2023-01-03T07:42:01.065Z,7
2023-01-03T07:45:01.053Z,7
2023-01-03T07:48:01.178Z,7
2023-01-03T07:51:00.995Z,7
2023-01-03T07:54:01.037Z,7
2023-01-03T07:57:00.951Z,7
2023-01-03T08:00:01.139Z,7
2023-01-03T08:03:01.912Z,7
2023-01-03T08:06:00.984Z,7
2023-01-03T08:09:06.569Z,7
2023-01-03T08:12:01.020Z,7
2023-01-03T08:15:01.024Z,7
2023-01-03T08:18:01.745Z,7
2023-01-03T08:21:01.091Z,7
2023-01-03T08:24:01.015Z,7
2023-01-03T08:27:01.011Z,7
2023-01-03T08:30:01.070Z,7
2023-01-03T08:33:01.014Z,7
2023-01-03T08:36:00.984Z,7
2023-01-03T08:39:01.084Z,7
2023-01-03T08:42:00.991Z,7
2023-01-03T08:45:01.024Z,7
2023-01-03T08:48:01.012Z,7
2023-01-03T08:51:01.002Z,7
2023-01-03T08:54:00.983Z,7
2023-01-03T08:57:01.005Z,7
2023-01-03T09:00:01.118Z,7
2023-01-03T09:03:01.409Z,7
2023-01-03T09:06:01.054Z,7
2023-01-03T09:09:00.961Z,7
2023-01-03T09:12:00.981Z,6.9
2023-01-03T09:15:01.018Z,6.9
2023-01-03T09:18:01.013Z,6.9
2023-01-03T09:21:00.964Z,6.9
2023-01-03T09:24:01.039Z,6.9
2023-01-03T09:27:01.044Z,6.9
2023-01-03T09:30:01.079Z,6.9
2023-01-03T09:33:01.009Z,6.9
2023-01-03T09:36:01.005Z,6.9
2023-01-03T09:39:01.030Z,6.9
2023-01-03T09:42:01.005Z,6.9
2023-01-03T09:45:01.027Z,6.9
2023-01-03T09:48:01.045Z,6.9
2023-01-03T09:51:25.740Z,6.9
2023-01-03T09:54:01.029Z,6.9
2023-01-03T09:57:01.025Z,6.9
2023-01-03T10:00:01.127Z,6.9
2023-01-03T10:03:01.282Z,6.9
2023-01-03T10:06:01.015Z,6.9
2023-01-03T10:09:00.975Z,6.9
2023-01-03T10:12:01.039Z,7
2023-01-03T10:15:01.092Z,7
2023-01-03T10:18:00.997Z,7
2023-01-03T10:21:00.964Z,7
2023-01-03T10:24:01.015Z,7
2023-01-03T10:27:01.009Z,7
2023-01-03T10:30:01.065Z,7
2023-01-03T10:33:01.064Z,7
2023-01-03T10:36:01.016Z,7
2023-01-03T10:39:01.043Z,7
2023-01-03T10:42:01.023Z,7
2023-01-03T10:45:01.026Z,7
2023-01-03T10:48:01.125Z,7
2023-01-03T10:51:01.025Z,7
2023-01-03T10:54:01.068Z,7
2023-01-03T10:57:00.998Z,7
2023-01-03T11:00:01.121Z,7
2023-01-03T11:03:01.365Z,7.2
2023-01-03T11:06:01.083Z,7.2
2023-01-03T11:09:01.033Z,7.2
2023-01-03T11:12:01.028Z,7.2
2023-01-03T11:15:01.103Z,7.2
2023-01-03T11:18:01.076Z,7.2
2023-01-03T11:21:01.032Z,7.2
2023-01-03T11:24:01.057Z,7.2
2023-01-03T11:27:01.023Z,7.2
2023-01-03T11:30:01.773Z,7.2
2023-01-03T11:33:00.998Z,7.2
2023-01-03T11:36:00.933Z,7.2
2023-01-03T11:39:01.136Z,7.2
2023-01-03T11:42:01.044Z,7.4
2023-01-03T11:45:01.041Z,7.4
2023-01-03T11:48:01.021Z,7.4
2023-01-03T11:51:00.990Z,7.4
2023-01-03T11:54:01.090Z,7.4
2023-01-03T11:57:01.082Z,7.4
2023-01-03T12:00:01.070Z,7.4
2023-01-03T12:03:01.176Z,7.5
2023-01-03T12:06:00.982Z,7.5
2023-01-03T12:09:01.130Z,7.5
2023-01-03T12:12:01.014Z,7.5
2023-01-03T12:15:01.173Z,7.6
2023-01-03T12:18:01.029Z,7.6
2023-01-03T12:21:01.053Z,7.6
2023-01-03T12:24:00.999Z,7.6
2023-01-03T12:27:01.027Z,7.6
2023-01-03T12:30:01.104Z,7.6
2023-01-03T12:33:01.025Z,7.6
2023-01-03T12:36:01.036Z,7.6
2023-01-03T12:39:01.035Z,7.6
2023-01-03T12:42:01.012Z,7.6
2023-01-03T12:45:01.149Z,7.6
2023-01-03T12:48:01.055Z,7.7
2023-01-03T12:51:01.029Z,7.7
2023-01-03T12:54:01.078Z,7.7
2023-01-03T12:57:01.030Z,7.7
2023-01-03T13:00:01.118Z,7.7
2023-01-03T13:03:01.285Z,7.7
2023-01-03T13:06:01.062Z,7.8
2023-01-03T13:09:01.007Z,7.8
2023-01-03T13:12:00.958Z,7.8
2023-01-03T13:15:01.060Z,7.8
2023-01-03T13:18:01.181Z,7.8
2023-01-03T13:21:01.035Z,7.8
2023-01-03T13:24:01.006Z,7.8
2023-01-03T13:27:01.026Z,7.8
2023-01-03T13:30:01.030Z,7.8
2023-01-03T13:33:01.011Z,7.8
2023-01-03T13:36:01.073Z,7.8
2023-01-03T13:39:01.006Z,8
2023-01-03T13:42:01.008Z,8
2023-01-03T13:45:00.988Z,8
2023-01-03T13:48:01.056Z,8
2023-01-03T13:51:01.037Z,8
2023-01-03T13:54:01.053Z,8
2023-01-03T13:57:00.976Z,8.1
2023-01-03T14:00:01.137Z,8.1
2023-01-03T14:03:01.575Z,8.1
2023-01-03T14:06:01.067Z,8.1
2023-01-03T14:09:00.982Z,8.1
2023-01-03T14:12:01.156Z,8.1
2023-01-03T14:15:02.206Z,8.1
2023-01-03T14:18:01.970Z,8.1
2023-01-03T14:21:01.618Z,8.1
2023-01-03T14:24:02.423Z,8.1
2023-01-03T14:27:01.413Z,8.1
2023-01-03T14:30:02.250Z,8.1
2023-01-03T14:33:01.220Z,8.1
2023-01-03T14:36:01.398Z,8.1
2023-01-03T14:45:00.948Z,8.1
2023-01-03T14:48:00.811Z,8.1
2023-01-03T14:51:00.929Z,8.1
2023-01-03T14:54:00.836Z,8.1
2023-01-03T14:57:01.020Z,8.5
2023-01-03T15:00:00.920Z,8.5
2023-01-03T15:03:01.232Z,8.5
2023-01-03T15:06:00.962Z,8.5
2023-01-03T15:09:00.905Z,8.5
2023-01-03T15:12:00.857Z,8.5
2023-01-03T15:15:00.836Z,8.5
2023-01-03T15:18:00.872Z,8.5
2023-01-03T15:21:00.918Z,8.5
2023-01-03T15:24:00.906Z,8.5
2023-01-03T15:27:00.818Z,8.5
2023-01-03T15:30:01.023Z,8.5
2023-01-03T15:33:00.886Z,8.5
2023-01-03T15:36:00.809Z,8.5
2023-01-03T15:39:00.864Z,8.5
2023-01-03T15:42:43.268Z,8.7
2023-01-03T15:45:00.838Z,8.7
2023-01-03T15:48:00.844Z,8.9
2023-01-03T15:51:00.843Z,8.9
2023-01-03T15:54:00.838Z,8.9
2023-01-03T15:57:00.795Z,8.9
2023-01-03T16:00:00.923Z,8.9
2023-01-03T16:03:01.368Z,8.9
2023-01-03T16:06:00.867Z,8.9
2023-01-03T16:09:00.884Z,8.9
2023-01-03T16:12:00.894Z,8.9
2023-01-03T16:15:00.827Z,8.9
2023-01-03T16:18:00.872Z,8.9
2023-01-03T16:21:00.896Z,8.9
2023-01-03T16:24:00.843Z,8.9
2023-01-03T16:27:00.877Z,8.9
2023-01-03T16:30:00.880Z,8.9
2023-01-03T16:33:00.921Z,8.9
2023-01-03T16:36:00.914Z,8.9
2023-01-03T16:39:00.795Z,8.9
2023-01-03T16:42:00.824Z,8.3
2023-01-03T16:45:00.854Z,8.3
2023-01-03T16:48:00.860Z,8.3
2023-01-03T16:51:00.858Z,8.2
2023-01-03T16:54:00.781Z,8.2
2023-01-03T16:57:01.073Z,8.2
2023-01-03T17:00:00.903Z,8.2
2023-01-03T17:03:01.521Z,8.2
2023-01-03T17:06:00.778Z,8.2
2023-01-03T17:09:00.874Z,8.2
2023-01-03T17:12:00.810Z,8.2
2023-01-03T17:15:00.850Z,8.1
2023-01-03T17:18:00.815Z,8.1
2023-01-03T17:21:00.848Z,8.1
2023-01-03T17:24:00.820Z,8.1
2023-01-03T17:27:00.835Z,8.1
2023-01-03T17:30:00.832Z,8.1
2023-01-03T17:33:01.072Z,8.1
2023-01-03T17:36:00.844Z,8.1
2023-01-03T17:39:00.824Z,7.8
2023-01-03T17:42:00.916Z,7.8
2023-01-03T17:45:00.842Z,7.8
2023-01-03T17:48:00.919Z,7.8
2023-01-03T17:51:00.818Z,7.6
2023-01-03T17:54:00.839Z,7.6
2023-01-03T17:57:00.792Z,7.6
2023-01-03T18:00:00.872Z,7.6
2023-01-03T18:03:01.415Z,7.6
2023-01-03T18:06:00.816Z,7.6
2023-01-03T18:09:00.928Z,7.6
2023-01-03T18:12:00.867Z,7.6
2023-01-03T18:15:00.840Z,7.6
2023-01-03T18:18:00.827Z,7.6
2023-01-03T18:21:00.849Z,7.6
2023-01-03T18:24:00.888Z,7.6
2023-01-03T18:27:00.893Z,7.6
2023-01-03T18:30:00.869Z,7.6
2023-01-03T18:33:00.814Z,7.6
2023-01-03T18:36:00.817Z,7.4
2023-01-03T18:39:00.775Z,7.4
2023-01-03T18:42:00.910Z,7.4
2023-01-03T18:45:00.835Z,7.4
2023-01-03T18:48:00.862Z,7.4
2023-01-03T18:51:00.837Z,7.5
2023-01-03T18:54:00.899Z,7.5
2023-01-03T18:57:00.843Z,7.5
2023-01-03T19:00:00.883Z,7.5
2023-01-03T19:03:01.308Z,7.5
2023-01-03T19:06:00.852Z,7.5
2023-01-03T19:09:00.833Z,7.5
2023-01-03T19:12:00.797Z,7.5
2023-01-03T19:15:00.855Z,7.5
2023-01-03T19:18:00.843Z,7.5
2023-01-03T19:21:00.867Z,7.5
2023-01-03T19:24:00.840Z,7.5
2023-01-03T19:27:00.804Z,7.5
2023-01-03T19:30:00.841Z,7.5
2023-01-03T19:33:00.833Z,7.6
2023-01-03T19:36:00.862Z,7.6
2023-01-03T19:39:00.800Z,7.6
2023-01-03T19:42:00.850Z,7.6
2023-01-03T19:45:00.871Z,7.6
2023-01-03T19:48:00.805Z,7.6
2023-01-03T19:51:00.897Z,7.6
2023-01-03T19:54:00.899Z,7.6
2023-01-03T19:57:00.833Z,7.6
2023-01-03T20:00:00.961Z,7.6
2023-01-03T20:03:01.157Z,7.6
2023-01-03T20:06:00.829Z,7.6
2023-01-03T20:09:00.818Z,7.5
2023-01-03T20:12:00.817Z,7.5
2023-01-03T20:15:07.701Z,7.5
2023-01-03T20:18:00.854Z,7.5
2023-01-03T20:21:00.828Z,7.5
2023-01-03T20:24:00.798Z,7.5
2023-01-03T20:27:00.886Z,7.3
2023-01-03T20:30:00.829Z,7.3
2023-01-03T20:33:00.829Z,7.3
2023-01-03T20:36:21.992Z,7.3
2023-01-03T20:39:00.835Z,7.3
2023-01-03T20:42:04.132Z,7.3
2023-01-03T20:45:00.891Z,7.3
2023-01-03T20:48:00.916Z,7.3
2023-01-03T20:51:00.844Z,7.3
2023-01-03T20:54:00.812Z,7.3
2023-01-03T20:57:00.897Z,7.3
2023-01-03T21:00:00.939Z,7.3
2023-01-03T21:03:01.126Z,7.2
2023-01-03T21:06:00.879Z,7.2
2023-01-03T21:09:00.876Z,7.2
2023-01-03T21:12:00.848Z,7.2
2023-01-03T21:15:00.785Z,7.2
2023-01-03T21:18:00.825Z,7.2
2023-01-03T21:21:00.811Z,7.1
2023-01-03T21:24:00.841Z,7.1
2023-01-03T21:27:00.847Z,7.1
2023-01-03T21:30:00.819Z,7.2
2023-01-03T21:33:00.885Z,7.2
2023-01-03T21:36:00.828Z,7.2
2023-01-03T21:39:00.803Z,7.2
2023-01-03T21:42:00.889Z,7.2
2023-01-03T21:45:00.858Z,7.2
2023-01-03T21:48:00.822Z,7.2
2023-01-03T21:51:00.834Z,7.2
2023-01-03T21:54:00.816Z,7.2
2023-01-03T21:57:00.805Z,7.2
2023-01-03T22:00:00.853Z,7.2
2023-01-03T22:03:01.097Z,7.2
2023-01-03T22:06:00.875Z,7.2
2023-01-03T22:09:00.904Z,7.2
2023-01-03T22:12:00.810Z,7.2
2023-01-03T22:15:00.869Z,7.2
2023-01-03T22:18:00.824Z,7.2
2023-01-03T22:21:00.813Z,7.1
2023-01-03T22:24:00.960Z,7.1
2023-01-03T22:27:00.817Z,7.1
2023-01-03T22:30:00.874Z,7.1
2023-01-03T22:33:00.831Z,7.1
2023-01-03T22:36:00.799Z,7.1
2023-01-03T22:39:00.950Z,7.1
2023-01-03T22:42:00.882Z,7.1
2023-01-03T22:45:00.947Z,7.1
2023-01-03T22:48:00.808Z,7.2
2023-01-03T22:51:00.930Z,7.2
2023-01-03T22:54:00.865Z,7.2
2023-01-03T22:57:00.838Z,7.2
2023-01-03T23:00:01.701Z,7.2
2023-01-03T23:03:00.902Z,7.2
2023-01-03T23:06:00.840Z,7.2
2023-01-03T23:09:00.838Z,7.2
2023-01-03T23:12:00.932Z,7.2
2023-01-03T23:15:00.877Z,7.2
2023-01-03T23:18:00.856Z,7.2
2023-01-03T23:21:00.903Z,7.3
2023-01-03T23:24:00.816Z,7.4
2023-01-03T23:27:00.842Z,7.4
2023-01-03T23:30:00.804Z,7.4
2023-01-03T23:33:00.896Z,7.4
2023-01-03T23:36:00.887Z,7.4
2023-01-03T23:39:00.836Z,7.4
2023-01-03T23:42:00.789Z,7.4
2023-01-03T23:45:01.055Z,7.4
2023-01-03T23:48:00.805Z,7.4
2023-01-03T23:51:00.853Z,7.4
2023-01-03T23:54:00.857Z,7.4
2023-01-03T23:57:00.844Z,7.4
